Time;durP1;ratioP1;P1;durP2;ratioP2;P2;SDS_P1;SDS_P2;PMS_P1;PMS_P2;Temp;Humidity;BMP_temperature;BMP_pressure;BME280_temperature;BME280_humidity;BME280_pressure;Samples;Min_cycle;Max_cycle;Signal;HPM_P1;HPM_P2
2023/07/25 00:01:33;;;;;;;9.63;5.53;;;;;;;27.53;46.69;98919.19;4482362;31;33744;-77
2023/07/25 00:04:01;;;;;;;12.20;5.57;;;;;;;27.46;46.69;98899.91;4486595;31;33424;-76
2023/07/25 00:06:30;;;;;;;10.82;5.50;;;;;;;27.26;47.16;98858.16;4487328;31;33196;-77
2023/07/25 00:08:57;;;;;;;11.50;5.80;;;;;;;27.41;47.28;98838.09;4486820;31;34476;-76
2023/07/25 00:11:25;;;;;;;9.80;5.60;;;;;;;27.74;46.78;98852.72;4490051;31;34608;-77
2023/07/25 00:13:52;;;;;;;10.73;5.40;;;;;;;27.85;46.27;98843.41;4490923;31;33680;-77
2023/07/25 00:16:20;;;;;;;10.68;5.62;;;;;;;27.91;46.12;98834.34;4494088;31;32953;-76
2023/07/25 00:18:47;;;;;;;11.30;5.47;;;;;;;27.85;46.20;98839.84;4495015;31;32338;-77
2023/07/25 00:21:16;;;;;;;9.45;5.25;;;;;;;27.90;45.81;98848.56;4494669;31;34602;-76
2023/07/25 00:23:43;;;;;;;10.38;5.12;;;;;;;27.85;45.94;98863.81;4492667;31;34563;-77
2023/07/25 00:26:11;;;;;;;11.02;5.50;;;;;;;27.83;45.83;98863.00;4492787;31;34047;-78
2023/07/25 00:28:39;;;;;;;12.32;5.68;;;;;;;27.74;46.03;98860.72;4487057;31;33498;-78
2023/07/25 00:31:07;;;;;;;12.25;5.18;;;;;;;27.63;46.30;98862.03;4487262;31;33678;-77
2023/07/25 00:33:35;;;;;;;11.98;5.60;;;;;;;27.89;45.51;98878.75;4493392;31;33264;-78
2023/07/25 00:36:02;;;;;;;10.47;5.30;;;;;;;27.67;46.00;98888.50;4486545;31;33919;-76
2023/07/25 00:38:30;;;;;;;10.57;5.60;;;;;;;27.58;46.25;98898.59;4483912;31;33296;-78
2023/07/25 00:40:57;;;;;;;10.00;5.53;;;;;;;27.52;46.58;98912.13;4490399;31;34496;-77
2023/07/25 00:43:25;;;;;;;12.65;5.60;;;;;;;27.57;46.51;98935.91;4494082;31;34115;-77
2023/07/25 00:45:52;;;;;;;12.63;5.62;;;;;;;27.47;47.23;98946.03;4489864;31;33300;-76
2023/07/25 00:48:23;;;;;;;12.07;5.62;;;;;;;27.62;47.29;98945.44;4475804;31;32715;-77
2023/07/25 00:50:50;;;;;;;11.12;5.40;;;;;;;27.42;47.96;98953.28;4488237;31;33804;-78
2023/07/25 00:53:18;;;;;;;11.50;5.80;;;;;;;27.88;46.89;98966.63;4475559;31;34535;-77
2023/07/25 00:55:46;;;;;;;10.32;5.60;;;;;;;27.82;46.74;98970.41;4484909;31;33096;-77
2023/07/25 00:58:14;;;;;;;10.52;5.53;;;;;;;27.56;47.62;98982.03;4489495;31;34487;-78
2023/07/25 01:00:43;;;;;;;14.20;5.62;;;;;;;27.35;48.47;99011.19;4488710;31;33505;-77
2023/07/25 01:03:11;;;;;;;13.05;5.70;;;;;;;27.21;49.53;99019.59;4486587;31;33830;-78
2023/07/25 01:05:42;;;;;;;12.20;5.37;;;;;;;27.44;50.41;99009.94;4489906;31;33604;-76
2023/07/25 01:08:09;;;;;;;12.13;5.12;;;;;;;27.18;51.99;99014.41;4466219;31;32812;-76
2023/07/25 01:10:38;;;;;;;9.85;4.70;;;;;;;27.04;53.52;99016.66;4484581;31;34316;-77
2023/07/25 01:13:06;;;;;;;12.88;5.00;;;;;;;26.76;54.91;99022.94;4488795;31;33733;-76
2023/07/25 01:15:34;;;;;;;10.80;4.60;;;;;;;26.59;56.54;99030.59;4483645;32;33416;-77
2023/07/25 01:18:04;;;;;;;10.32;4.50;;;;;;;26.69;56.51;99053.28;4485269;31;34378;-78
2023/07/25 01:20:33;;;;;;;11.02;4.70;;;;;;;26.60;57.06;99040.31;4497069;31;33627;-77
2023/07/25 01:23:01;;;;;;;9.55;4.22;;;;;;;26.40;58.71;99036.47;4471266;31;32260;-74
2023/07/25 01:25:29;;;;;;;8.93;4.18;;;;;;;26.19;59.27;99027.44;4492754;31;33345;-77
2023/07/25 01:27:56;;;;;;;9.65;4.32;;;;;;;25.74;61.00;99019.03;4485642;31;33835;-77
2023/07/25 01:30:24;;;;;;;8.90;4.10;;;;;;;25.73;61.33;99014.62;4491494;31;34239;-75
2023/07/25 01:32:51;;;;;;;9.43;3.93;;;;;;;25.50;62.34;99005.59;4487883;31;33715;-75
2023/07/25 01:35:19;;;;;;;10.13;4.30;;;;;;;25.48;62.76;99007.41;4484620;31;33385;-77
2023/07/25 01:37:47;;;;;;;11.27;4.25;;;;;;;25.78;61.40;98999.47;4481730;31;33671;-77
2023/07/25 01:40:15;;;;;;;9.82;4.10;;;;;;;25.35;63.14;98966.28;4490974;31;32665;-77
2023/07/25 01:42:42;;;;;;;9.45;3.90;;;;;;;24.79;65.02;98948.34;4493632;31;34222;-75
2023/07/25 01:45:10;;;;;;;7.95;3.87;;;;;;;25.24;63.61;98911.75;4486490;31;33674;-75
2023/07/25 01:47:38;;;;;;;8.23;4.03;;;;;;;25.48;62.29;98915.47;4491894;31;34400;-75
2023/07/25 01:50:05;;;;;;;9.45;3.85;;;;;;;26.01;61.33;98921.84;4486414;31;34614;-77
2023/07/25 01:52:33;;;;;;;9.60;3.90;;;;;;;26.09;60.51;98898.56;4491767;31;33860;-75
2023/07/25 01:55:01;;;;;;;8.52;3.90;;;;;;;26.15;59.57;98865.66;4487147;31;33382;-76
2023/07/25 01:57:29;;;;;;;10.05;4.37;;;;;;;26.36;59.18;98846.31;4493145;31;33496;-75
2023/07/25 01:59:57;;;;;;;9.15;4.10;;;;;;;26.56;58.01;98819.09;4482676;31;34555;-75
2023/07/25 02:02:25;;;;;;;10.02;4.00;;;;;;;26.78;57.54;98815.66;4485585;31;33166;-75
2023/07/25 02:04:54;;;;;;;10.40;3.97;;;;;;;26.73;57.85;98836.22;4498700;31;33220;-75
2023/07/25 02:07:22;;;;;;;10.32;4.18;;;;;;;26.96;56.61;98822.06;4497204;31;33937;-75
2023/07/25 02:09:53;;;;;;;9.73;3.83;;;;;;;26.73;57.28;98814.97;4488471;31;33624;-77
2023/07/25 02:12:23;;;;;;;9.65;4.07;;;;;;;26.11;59.89;98834.81;4494919;31;34274;-76
2023/07/25 02:14:50;;;;;;;11.18;4.50;;;;;;;25.97;61.64;98861.84;4487553;31;33054;-76
2023/07/25 02:17:19;;;;;;;8.85;4.07;;;;;;;26.30;61.21;98881.06;4494409;31;34588;-75
2023/07/25 02:19:47;;;;;;;11.02;4.35;;;;;;;25.74;63.38;98902.34;4494754;31;34020;-75
2023/07/25 02:22:14;;;;;;;9.10;4.40;;;;;;;25.12;65.71;98909.44;4485956;31;33718;-75
2023/07/25 02:24:42;;;;;;;10.43;4.30;;;;;;;25.53;65.06;98920.63;4488556;31;33787;-77
2023/07/25 02:27:09;;;;;;;11.02;4.75;;;;;;;25.62;64.40;98917.72;4496124;31;33358;-77
2023/07/25 02:29:37;;;;;;;9.07;4.22;;;;;;;25.53;64.76;98864.94;4486116;31;34717;-74
2023/07/25 02:32:05;;;;;;;9.68;4.30;;;;;;;25.68;63.22;98734.50;4496462;31;33258;-77
2023/07/25 02:34:32;;;;;;;9.38;3.87;;;;;;;25.62;63.42;98702.91;4493739;31;33996;-74
2023/07/25 02:37:00;;;;;;;10.20;4.55;;;;;;;25.55;64.53;98775.63;4491713;31;34258;-76
2023/07/25 02:39:28;;;;;;;10.35;4.40;;;;;;;25.23;65.57;98708.62;4493897;31;33785;-76
2023/07/25 02:41:55;;;;;;;9.90;4.40;;;;;;;25.10;67.35;98708.09;4481847;31;34024;-77
2023/07/25 02:44:23;;;;;;;10.48;4.57;;;;;;;24.99;68.09;98698.75;4497991;31;34251;-76
2023/07/25 02:46:51;;;;;;;10.80;4.62;;;;;;;24.58;70.17;98695.63;4487286;31;33749;-76
2023/07/25 02:49:19;;;;;;;10.45;4.53;;;;;;;24.74;69.96;98720.69;4485372;31;33371;-76
2023/07/25 02:51:47;;;;;;;8.65;4.28;;;;;;;25.12;68.00;98721.31;4493341;31;34375;-74
2023/07/25 02:54:14;;;;;;;9.82;4.43;;;;;;;25.02;68.19;98733.13;4486199;31;33602;-77
2023/07/25 02:56:42;;;;;;;10.13;4.47;;;;;;;24.85;68.90;98731.84;4491845;31;33538;-75
2023/07/25 02:59:10;;;;;;;8.52;4.57;;;;;;;24.67;69.74;98743.00;4482669;31;33358;-76
2023/07/25 03:01:37;;;;;;;9.80;4.57;;;;;;;24.58;69.95;98760.00;4489218;31;33770;-77
2023/07/25 03:04:05;;;;;;;9.60;4.72;;;;;;;24.11;72.29;98776.28;4482298;32;33654;-76
2023/07/25 03:06:32;;;;;;;11.03;4.93;;;;;;;24.12;72.35;98787.72;4487943;31;33567;-77
2023/07/25 03:09:00;;;;;;;11.07;4.53;;;;;;;24.13;72.40;98795.63;4490688;31;34087;-77
2023/07/25 03:11:27;;;;;;;10.88;4.20;;;;;;;24.27;71.14;98789.09;4488804;31;34332;-76
2023/07/25 03:13:55;;;;;;;10.82;4.95;;;;;;;24.24;71.08;98791.81;4493220;31;33001;-76
2023/07/25 03:16:23;;;;;;;10.05;4.07;;;;;;;24.10;71.84;98800.97;4492143;31;33555;-76
2023/07/25 03:18:50;;;;;;;10.77;4.30;;;;;;;24.36;70.00;98796.78;4492894;31;33831;-77
2023/07/25 03:21:18;;;;;;;8.82;4.47;;;;;;;24.62;68.35;98801.38;4489820;31;34678;-75
2023/07/25 03:23:45;;;;;;;8.53;4.03;;;;;;;24.37;69.48;98787.91;4495002;31;33409;-76
2023/07/25 03:26:13;;;;;;;9.67;4.33;;;;;;;24.32;69.40;98795.13;4494983;31;34416;-78
2023/07/25 03:28:40;;;;;;;8.98;4.05;;;;;;;24.13;70.18;98810.63;4492644;31;33763;-77
2023/07/25 03:31:08;;;;;;;10.00;4.10;;;;;;;25.15;66.23;98824.56;4488691;31;34002;-75
2023/07/25 03:33:36;;;;;;;9.52;4.22;;;;;;;25.30;65.10;98829.44;4485740;31;34049;-75
2023/07/25 03:36:04;;;;;;;8.13;4.05;;;;;;;25.50;64.56;98846.50;4485658;31;33084;-74
2023/07/25 03:38:32;;;;;;;9.33;3.97;;;;;;;25.36;64.10;98844.25;4495604;31;34613;-75
2023/07/25 03:40:59;;;;;;;8.87;3.77;;;;;;;25.30;64.58;98828.53;4494976;31;33943;-76
2023/07/25 03:43:27;;;;;;;7.97;3.53;;;;;;;25.55;63.45;98811.87;4496358;31;33871;-76
2023/07/25 03:45:54;;;;;;;8.38;3.70;;;;;;;25.73;62.18;98802.44;4497031;31;33952;-75
2023/07/25 03:48:22;;;;;;;9.10;3.78;;;;;;;25.97;61.24;98806.13;4496379;31;34575;-75
2023/07/25 03:50:49;;;;;;;8.53;3.80;;;;;;;25.88;61.71;98799.28;4496057;31;33775;-76
2023/07/25 03:53:17;;;;;;;7.45;3.40;;;;;;;26.08;60.67;98799.50;4495359;31;33050;-77
2023/07/25 03:55:44;;;;;;;8.57;3.70;;;;;;;26.03;60.84;98789.97;4495950;31;34435;-75
2023/07/25 03:58:12;;;;;;;10.63;3.90;;;;;;;26.32;59.41;98796.06;4490571;31;34514;-77
2023/07/25 04:00:41;;;;;;;8.30;3.73;;;;;;;26.20;59.83;98806.19;4489598;31;34722;-77
2023/07/25 04:03:08;;;;;;;8.90;3.83;;;;;;;26.23;59.57;98797.22;4497101;31;33699;-76
2023/07/25 04:05:42;;;;;;;10.32;3.78;;;;;;;25.80;60.99;98818.09;4489667;31;33213;-76
2023/07/25 04:08:10;;;;;;;7.18;3.70;;;;;;;25.82;61.49;98818.06;4490775;31;33374;-75
2023/07/25 04:10:38;;;;;;;8.05;3.97;;;;;;;25.78;61.73;98814.63;4485134;31;34310;-75
2023/07/25 04:13:06;;;;;;;9.63;3.90;;;;;;;25.58;62.36;98820.59;4497449;31;33765;-75
2023/07/25 04:15:33;;;;;;;8.38;4.00;;;;;;;25.04;64.44;98805.47;4483671;32;33835;-76
2023/07/25 04:18:01;;;;;;;8.40;3.92;;;;;;;25.07;64.60;98802.72;4491951;31;33396;-77
2023/07/25 04:20:29;;;;;;;8.85;4.47;;;;;;;24.83;65.81;98813.13;4485532;31;33660;-76
2023/07/25 04:22:56;;;;;;;10.00;4.47;;;;;;;25.18;64.68;98813.84;4493297;31;34114;-75
2023/07/25 04:25:26;;;;;;;9.48;4.28;;;;;;;25.22;64.79;98804.94;4493481;31;34387;-75
2023/07/25 04:27:53;;;;;;;8.90;4.40;;;;;;;25.07;65.62;98805.37;4484977;31;34226;-75
2023/07/25 04:30:21;;;;;;;10.10;4.80;;;;;;;24.56;67.72;98800.69;4487525;31;33848;-75
2023/07/25 04:32:49;;;;;;;9.52;4.80;;;;;;;24.59;68.10;98809.41;4488035;31;33644;-76
2023/07/25 04:35:16;;;;;;;9.70;4.73;;;;;;;24.39;69.30;98801.97;4485017;31;34418;-77
2023/07/25 04:37:44;;;;;;;10.37;4.80;;;;;;;24.08;70.85;98802.81;4472078;31;33709;-75
2023/07/25 04:40:12;;;;;;;9.55;5.10;;;;;;;24.14;70.65;98809.72;4485435;31;34516;-76
2023/07/25 04:42:39;;;;;;;12.45;5.30;;;;;;;24.23;70.19;98805.97;4486879;31;33372;-76
2023/07/25 04:45:07;;;;;;;11.32;5.40;;;;;;;24.58;68.50;98818.25;4483170;31;34669;-77
2023/07/25 04:47:35;;;;;;;11.20;4.32;;;;;;;24.21;70.19;98813.09;4485313;31;34178;-76
2023/07/25 04:50:03;;;;;;;11.20;5.00;;;;;;;23.85;72.17;98821.03;4483508;31;34445;-77
2023/07/25 04:52:30;;;;;;;10.27;5.50;;;;;;;23.91;72.22;98810.31;4488586;31;33191;-76
2023/07/25 04:54:58;;;;;;;12.13;5.20;;;;;;;23.91;72.22;98807.66;4481725;31;33711;-76
2023/07/25 04:57:26;;;;;;;10.25;4.60;;;;;;;23.98;72.26;98795.16;4497315;31;34682;-77
2023/07/25 04:59:54;;;;;;;9.45;4.60;;;;;;;23.87;72.68;98787.50;4481262;31;33218;-75
2023/07/25 05:02:22;;;;;;;9.65;4.55;;;;;;;24.12;71.83;98793.88;4480108;31;32576;-77
2023/07/25 05:04:50;;;;;;;11.57;5.03;;;;;;;24.29;70.97;98787.28;4492504;31;33423;-76
2023/07/25 05:07:17;;;;;;;9.73;4.33;;;;;;;24.42;70.35;98771.94;4494854;31;34484;-76
2023/07/25 05:09:45;;;;;;;9.57;4.22;;;;;;;24.66;69.42;98762.44;4490341;31;33441;-76
2023/07/25 05:12:13;;;;;;;8.68;3.80;;;;;;;25.14;67.34;98748.63;4488174;31;34024;-75
2023/07/25 05:14:41;;;;;;;8.30;4.32;;;;;;;25.35;66.13;98751.56;4487243;31;33239;-77
2023/07/25 05:17:08;;;;;;;9.10;4.47;;;;;;;25.03;67.28;98777.22;4486148;31;32764;-78
2023/07/25 05:19:36;;;;;;;9.02;4.50;;;;;;;25.28;66.48;98772.97;4479361;31;33719;-75
2023/07/25 05:22:04;;;;;;;10.32;4.28;;;;;;;25.34;65.46;98763.06;4493108;31;34046;-77
2023/07/25 05:24:31;;;;;;;10.13;4.43;;;;;;;25.44;65.02;98746.81;4492175;31;34558;-77
2023/07/25 05:26:59;;;;;;;9.80;4.55;;;;;;;25.17;66.11;98753.84;4496083;31;33817;-75
2023/07/25 05:29:27;;;;;;;9.13;4.57;;;;;;;25.50;64.55;98754.56;4495865;31;34485;-75
2023/07/25 05:31:54;;;;;;;9.60;4.10;;;;;;;25.40;65.17;98749.59;4491697;31;33463;-75
2023/07/25 05:34:22;;;;;;;8.82;3.70;;;;;;;25.51;64.50;98747.47;4485844;31;33691;-76
2023/07/25 05:36:49;;;;;;;9.60;4.15;;;;;;;25.35;64.72;98756.84;4490004;31;35081;-78
2023/07/25 05:39:17;;;;;;;8.85;4.20;;;;;;;25.45;64.43;98748.53;4494795;31;34460;-79
2023/07/25 05:41:44;;;;;;;9.02;4.15;;;;;;;25.70;63.60;98748.59;4482762;31;34146;-78
2023/07/25 05:44:12;;;;;;;8.45;4.05;;;;;;;25.89;62.86;98745.31;4489586;31;33492;-81
2023/07/25 05:46:40;;;;;;;9.80;4.40;;;;;;;25.82;63.34;98752.59;4493534;31;34113;-82
2023/07/25 05:49:07;;;;;;;10.57;4.53;;;;;;;25.88;63.14;98759.50;4484715;31;33559;-79
2023/07/25 05:51:35;;;;;;;8.98;3.87;;;;;;;25.70;64.07;98768.94;4490030;31;33185;-81
2023/07/25 05:54:02;;;;;;;9.65;4.62;;;;;;;25.90;63.69;98781.53;4488464;31;34650;-84
2023/07/25 05:56:30;;;;;;;11.27;4.00;;;;;;;25.74;64.79;98793.59;4489369;31;33440;-82
2023/07/25 05:58:57;;;;;;;11.30;4.43;;;;;;;25.78;64.46;98792.56;4480339;31;33358;-81
2023/07/25 06:01:25;;;;;;;9.98;4.22;;;;;;;25.82;64.46;98786.22;4482999;31;33597;-80
2023/07/25 06:03:53;;;;;;;9.73;4.57;;;;;;;25.80;64.93;98788.94;4479934;31;33164;-80
2023/07/25 06:06:20;;;;;;;10.10;4.25;;;;;;;26.16;63.99;98787.78;4489518;31;33778;-77
2023/07/25 06:08:48;;;;;;;9.93;4.45;;;;;;;25.94;64.79;98772.59;4492168;31;33985;-77
2023/07/25 06:11:21;;;;;;;9.25;4.28;;;;;;;26.10;63.80;98767.63;4494208;31;33040;-78
2023/07/25 06:13:49;;;;;;;11.85;4.47;;;;;;;26.20;63.37;98762.84;4477753;31;34262;-80
2023/07/25 06:16:17;;;;;;;10.13;4.03;;;;;;;26.18;63.85;98765.56;4483772;31;33377;-78
2023/07/25 06:18:44;;;;;;;9.40;4.30;;;;;;;26.31;63.22;98766.00;4487229;31;33669;-80
2023/07/25 06:21:12;;;;;;;12.23;4.28;;;;;;;26.32;61.55;98765.06;4495217;31;33965;-78
2023/07/25 06:23:40;;;;;;;9.05;4.03;;;;;;;26.40;62.03;98755.00;4487363;31;34138;-79
2023/07/25 06:26:07;;;;;;;9.38;4.00;;;;;;;26.58;61.80;98748.19;4486758;31;33880;-83
2023/07/25 06:28:35;;;;;;;9.00;4.22;;;;;;;26.59;61.81;98744.63;4485939;31;33314;-80
2023/07/25 06:31:02;;;;;;;9.07;3.45;;;;;;;26.57;61.29;98745.56;4493017;31;33295;-78
2023/07/25 06:33:30;;;;;;;8.45;3.87;;;;;;;26.54;58.86;98748.34;4485112;31;33643;-77
2023/07/25 06:35:57;;;;;;;9.20;4.00;;;;;;;26.64;59.12;98739.16;4479766;31;34157;-79
2023/07/25 06:38:25;;;;;;;8.45;4.03;;;;;;;26.74;59.09;98732.56;4487629;31;34430;-79
2023/07/25 06:40:53;;;;;;;9.95;4.50;;;;;;;26.82;58.26;98725.16;4487477;31;33176;-80
2023/07/25 06:43:20;;;;;;;9.30;3.90;;;;;;;26.73;58.68;98720.19;4489293;31;34628;-80
2023/07/25 06:45:51;;;;;;;9.38;3.70;;;;;;;27.04;57.99;98724.31;4486292;31;33505;-79
2023/07/25 06:48:18;;;;;;;10.30;3.85;;;;;;;26.93;56.98;98716.78;4490432;31;33946;-79
2023/07/25 06:50:46;;;;;;;8.88;4.00;;;;;;;26.94;56.50;98714.97;4480387;31;31823;-80
2023/07/25 06:53:13;;;;;;;9.18;3.70;;;;;;;27.05;54.75;98710.09;4483314;31;33923;-77
2023/07/25 06:55:41;;;;;;;11.05;4.15;;;;;;;27.50;53.76;98701.19;4494765;31;33643;-78
2023/07/25 06:58:08;;;;;;;9.50;4.18;;;;;;;27.31;54.87;98694.91;4487618;31;33561;-78
2023/07/25 07:00:39;;;;;;;8.85;3.90;;;;;;;27.40;54.22;98689.22;4491309;31;32014;-78
2023/07/25 07:03:07;;;;;;;9.35;3.72;;;;;;;27.55;53.87;98683.25;4486648;31;34463;-79
2023/07/25 07:05:34;;;;;;;9.77;4.07;;;;;;;27.58;53.97;98683.13;4495734;31;34435;-79
2023/07/25 07:08:04;;;;;;;9.38;4.18;;;;;;;27.73;53.00;98675.41;4497667;31;33548;-80
2023/07/25 07:10:33;;;;;;;9.25;4.22;;;;;;;27.94;53.17;98663.84;4483361;31;33976;-78
2023/07/25 07:13:03;;;;;;;8.25;3.90;;;;;;;27.96;53.04;98662.00;4492174;31;33906;-78
2023/07/25 07:15:31;;;;;;;10.75;3.80;;;;;;;28.09;52.23;98658.78;4488974;31;33812;-79
2023/07/25 07:17:59;;;;;;;9.45;4.20;;;;;;;28.12;52.30;98651.50;4486587;31;33805;-76
2023/07/25 07:20:27;;;;;;;10.73;4.10;;;;;;;28.48;49.67;98650.75;4486554;31;33410;-78
2023/07/25 07:22:54;;;;;;;10.90;3.87;;;;;;;28.37;51.50;98645.91;4486843;31;32824;-80
2023/07/25 07:25:22;;;;;;;6.67;3.60;;;;;;;28.60;50.96;98639.53;4493862;31;34953;-78
2023/07/25 07:27:50;;;;;;;7.22;3.62;;;;;;;29.00;48.48;98636.75;4492525;31;33390;-80
2023/07/25 07:30:17;;;;;;;8.20;3.83;;;;;;;29.24;47.29;98632.03;4499832;31;33324;-77
2023/07/25 07:32:45;;;;;;;11.00;5.70;;;;;;;28.99;49.19;98624.38;4488994;31;33234;-80
2023/07/25 07:35:13;;;;;;;11.60;4.30;;;;;;;29.16;48.91;98629.75;4493381;31;33788;-82
2023/07/25 07:37:40;;;;;;;9.48;4.10;;;;;;;29.26;48.85;98619.47;4486173;31;34764;-81
2023/07/25 07:40:08;;;;;;;9.13;3.58;;;;;;;29.47;48.47;98612.19;4489560;31;33419;-76
2023/07/25 07:42:36;;;;;;;8.00;3.40;;;;;;;29.88;46.63;98611.88;4494472;31;33810;-79
2023/07/25 07:45:04;;;;;;;8.70;3.37;;;;;;;29.68;48.06;98620.03;4487655;31;34641;-83
2023/07/25 07:47:34;;;;;;;6.93;3.30;;;;;;;29.72;48.86;98633.16;4489586;31;33384;-81
2023/07/25 07:50:02;;;;;;;17.87;4.50;;;;;;;29.78;48.23;98631.97;4502031;31;32958;-77
2023/07/25 07:52:40;;;;;;;7.82;3.53;;;;;;;29.69;48.68;98629.75;4495047;31;34190;-81
2023/07/25 07:55:10;;;;;;;8.95;3.30;;;;;;;29.80;49.17;98630.09;4488571;31;32980;-80
2023/07/25 07:57:40;;;;;;;7.28;3.03;;;;;;;29.62;51.40;98625.69;4485248;31;33610;-79
2023/07/25 08:00:08;;;;;;;8.23;3.45;;;;;;;29.71;49.95;98622.53;4486868;31;33285;-78
2023/07/25 08:02:37;;;;;;;7.20;3.47;;;;;;;29.63;50.62;98632.75;4494365;31;33683;-78
2023/07/25 08:05:06;;;;;;;7.27;3.60;;;;;;;29.48;50.32;98635.28;4494553;31;33884;-78
2023/07/25 08:07:34;;;;;;;9.50;3.42;;;;;;;29.43;50.61;98634.63;4489430;31;33818;-78
2023/07/25 08:10:01;;;;;;;7.82;3.50;;;;;;;29.32;50.98;98628.97;4494982;31;33425;-79
2023/07/25 08:12:29;;;;;;;7.95;3.75;;;;;;;29.49;50.36;98628.97;4492768;31;34352;-78
2023/07/25 08:14:56;;;;;;;7.47;3.25;;;;;;;29.31;50.52;98629.94;4492500;31;33926;-78
2023/07/25 08:17:24;;;;;;;8.88;3.55;;;;;;;28.91;51.80;98629.22;4488986;31;34413;-78
2023/07/25 08:19:52;;;;;;;7.00;3.25;;;;;;;28.93;50.90;98619.34;4489438;31;34632;-80
2023/07/25 08:22:19;;;;;;;8.68;3.22;;;;;;;29.01;50.67;98619.81;4486907;31;34388;-77
2023/07/25 08:24:47;;;;;;;7.37;3.17;;;;;;;28.83;51.33;98611.78;4495930;31;33815;-77
2023/07/25 08:27:15;;;;;;;6.53;3.15;;;;;;;28.78;51.05;98607.63;4479175;31;33455;-76
2023/07/25 08:29:48;;;;;;;8.23;3.10;;;;;;;28.56;51.72;98598.00;4487544;31;33447;-79
2023/07/25 08:32:16;;;;;;;8.05;3.22;;;;;;;28.72;51.21;98597.25;4484722;31;33180;-80
2023/07/25 08:34:44;;;;;;;9.00;3.60;;;;;;;28.59;51.75;98589.03;4489626;31;34642;-77
2023/07/25 08:37:11;;;;;;;7.72;3.30;;;;;;;28.62;51.91;98602.19;4492566;31;33790;-77
2023/07/25 08:39:39;;;;;;;7.72;3.08;;;;;;;28.46;52.99;98601.16;4491290;31;32944;-76
2023/07/25 08:42:07;;;;;;;9.38;3.60;;;;;;;28.42;54.27;98606.63;4491010;31;33463;-78
2023/07/25 08:44:35;;;;;;;9.65;3.42;;;;;;;27.95;56.12;98601.72;4479890;31;34508;-77
2023/07/25 08:47:10;;;;;;;10.82;3.45;;;;;;;27.85;56.53;98605.69;4493246;31;34393;-78
2023/07/25 08:49:40;;;;;;;8.52;3.35;;;;;;;27.86;56.78;98607.41;4465060;31;32454;-78
2023/07/25 08:52:08;;;;;;;10.27;3.45;;;;;;;27.81;57.85;98601.44;4485107;31;32492;-77
2023/07/25 08:54:36;;;;;;;6.90;3.42;;;;;;;27.88;58.15;98621.56;4476600;31;33198;-76
2023/07/25 08:57:04;;;;;;;10.80;3.80;;;;;;;27.76;59.21;98643.38;4491303;31;34288;-76
2023/07/25 08:59:32;;;;;;;8.73;3.62;;;;;;;27.76;58.69;98649.53;4487369;31;32961;-78
2023/07/25 09:02:00;;;;;;;9.32;3.47;;;;;;;27.65;59.24;98657.13;4474715;31;33150;-78
2023/07/25 09:04:28;;;;;;;7.78;3.55;;;;;;;27.63;60.03;98669.63;4480401;31;32229;-78
2023/07/25 09:06:56;;;;;;;9.90;3.42;;;;;;;27.48;60.72;98708.38;4492678;31;33671;-77
2023/07/25 09:09:23;;;;;;;9.63;3.70;;;;;;;27.87;59.88;98790.09;4481417;31;33212;-81
2023/07/25 09:11:51;;;;;;;8.68;3.70;;;;;;;27.57;61.26;98899.50;4491047;31;34582;-76
2023/07/25 09:14:19;;;;;;;8.10;3.40;;;;;;;27.93;59.80;98954.91;4477345;32;33605;-79
2023/07/25 09:16:47;;;;;;;9.23;3.60;;;;;;;27.52;60.86;98989.25;4487721;31;34037;-80
2023/07/25 09:19:14;;;;;;;9.20;3.75;;;;;;;27.24;61.78;98963.69;4464585;31;33599;-81
2023/07/25 09:21:49;;;;;;;9.17;3.63;;;;;;;27.14;63.04;98948.97;4488011;31;33819;-75
2023/07/25 09:24:17;;;;;;;10.73;3.90;;;;;;;26.95;63.93;98922.19;4494225;31;33304;-72
2023/07/25 09:26:52;;;;;;;10.70;4.35;;;;;;;26.52;65.86;98913.06;4491490;31;33432;-74
2023/07/25 09:29:24;;;;;;;11.38;4.12;;;;;;;26.46;65.71;98911.50;4491668;31;32481;-75
2023/07/25 09:31:52;;;;;;;8.95;4.37;;;;;;;26.37;65.68;98914.44;4492085;31;34040;-76
2023/07/25 09:34:23;;;;;;;10.55;5.00;;;;;;;26.03;67.00;98920.88;4496311;31;33809;-81
2023/07/25 09:36:50;;;;;;;11.82;4.93;;;;;;;26.05;67.37;98908.41;4493381;31;34318;-81
2023/07/25 09:39:18;;;;;;;11.50;5.12;;;;;;;26.11;66.82;98890.56;4486039;31;33317;-85
2023/07/25 09:41:50;;;;;;;11.70;5.20;;;;;;;25.73;66.49;98874.94;4488371;31;33471;-81
2023/07/25 09:44:17;;;;;;;11.45;4.82;;;;;;;25.44;67.24;98883.78;4491594;31;33566;-79
2023/07/25 09:46:54;;;;;;;14.82;5.50;;;;;;;25.39;68.31;98880.44;4480522;31;32908;-83
2023/07/25 09:49:22;;;;;;;10.88;4.85;;;;;;;25.20;68.76;98857.09;4489196;31;33351;-79
2023/07/25 09:51:59;;;;;;;11.73;4.72;;;;;;;25.53;67.92;98830.47;4486996;31;33407;-80
2023/07/25 09:54:27;;;;;;;11.38;4.90;;;;;;;25.65;66.56;98829.22;4477352;31;32587;-82
2023/07/25 09:56:55;;;;;;;10.05;4.80;;;;;;;25.63;66.74;98778.91;4485835;31;33239;-81
2023/07/25 09:59:22;;;;;;;9.98;4.75;;;;;;;25.34;67.94;98752.44;4477505;31;34031;-79
2023/07/25 10:01:50;;;;;;;10.45;4.80;;;;;;;25.29;67.91;98764.06;4486279;31;33711;-79
2023/07/25 10:04:20;;;;;;;8.97;4.90;;;;;;;25.07;69.34;98765.63;4466487;31;878771;-80
2023/07/25 10:06:48;;;;;;;9.20;4.72;;;;;;;24.99;70.11;98759.69;4489171;31;34061;-82
2023/07/25 10:09:16;;;;;;;11.63;4.70;;;;;;;24.97;70.58;98772.13;4479463;31;33356;-77
2023/07/25 10:11:44;;;;;;;9.80;4.68;;;;;;;25.02;70.96;98775.50;4489041;31;32470;-78
2023/07/25 10:14:11;;;;;;;9.67;5.20;;;;;;;25.03;70.78;98809.88;4479406;31;33782;-79
2023/07/25 10:16:40;;;;;;;10.90;5.18;;;;;;;24.97;72.02;98814.50;4472307;31;32134;-79
2023/07/25 10:19:07;;;;;;;9.30;4.68;;;;;;;25.26;71.08;98837.50;4475206;31;32261;-79
2023/07/25 10:21:52;;;;;;;9.85;5.05;;;;;;;25.49;69.79;98860.66;4475898;31;34356;-77
2023/07/25 10:24:21;;;;;;;10.80;5.07;;;;;;;25.48;69.76;98888.97;4470845;31;31687;-78
2023/07/25 10:26:56;;;;;;;9.38;4.60;;;;;;;25.20;70.73;98862.38;4489351;31;33590;-76
2023/07/25 10:29:50;;;;;;;8.32;4.45;;;;;;;25.37;69.53;98839.84;4489281;31;32686;-77
2023/07/25 10:32:22;;;;;;;8.98;4.78;;;;;;;25.03;70.44;98819.63;4481930;31;33785;-77
2023/07/25 10:35:03;;;;;;;9.02;4.55;;;;;;;25.03;71.43;98803.72;4492685;31;33405;-77
2023/07/25 10:37:36;;;;;;;8.38;4.65;;;;;;;25.17;71.14;98784.75;4486639;31;33774;-77
2023/07/25 10:40:15;;;;;;;9.20;4.70;;;;;;;25.23;71.04;98774.87;4483439;31;32853;-77
2023/07/25 10:42:57;;;;;;;9.00;4.47;;;;;;;25.46;69.93;98765.34;4488280;31;33461;-76
2023/07/25 10:45:34;;;;;;;9.32;4.62;;;;;;;25.45;68.94;98737.06;4476239;32;32873;-77
2023/07/25 10:48:01;;;;;;;8.38;3.95;;;;;;;25.22;69.33;98746.62;4492263;31;34349;-76
2023/07/25 10:50:44;;;;;;;7.75;4.50;;;;;;;25.35;68.69;98728.56;4475773;31;33661;-77
2023/07/25 10:53:16;;;;;;;9.03;4.20;;;;;;;25.08;70.07;98717.88;4490774;31;33134;-77
2023/07/25 10:56:06;;;;;;;7.57;4.18;;;;;;;25.46;68.94;98722.91;4486170;31;33577;-77
2023/07/25 10:58:39;;;;;;;21.20;5.00;;;;;;;25.41;69.34;98730.13;4484050;31;33201;-78
2023/07/25 11:01:07;;;;;;;6.60;3.80;;;;;;;25.65;69.02;98747.91;4477140;31;33044;-78
2023/07/25 11:03:36;;;;;;;7.82;4.32;;;;;;;26.15;68.52;98756.84;4483950;31;34025;-78
2023/07/25 11:06:06;;;;;;;9.20;4.20;;;;;;;25.91;69.80;98748.81;4487347;31;33621;-79
2023/07/25 11:08:38;;;;;;;9.00;4.43;;;;;;;26.19;68.32;98745.19;4491895;31;32084;-79
2023/07/25 11:11:10;;;;;;;7.07;4.00;;;;;;;26.38;63.94;98725.00;4490786;31;32691;-78
2023/07/25 11:13:42;;;;;;;8.60;4.07;;;;;;;26.43;65.35;98708.91;4492742;31;33456;-78
2023/07/25 11:16:11;;;;;;;7.18;3.42;;;;;;;26.44;64.47;98666.38;4475778;31;33753;-77
2023/07/25 11:18:49;;;;;;;7.15;4.00;;;;;;;26.46;64.06;98664.53;4475143;32;34533;-77
2023/07/25 11:21:17;;;;;;;8.07;4.03;;;;;;;26.64;64.20;98655.03;4495916;31;32401;-80
2023/07/25 11:23:45;;;;;;;7.60;3.90;;;;;;;26.77;62.65;98651.87;4489082;31;33289;-77
2023/07/25 11:26:13;;;;;;;7.68;3.62;;;;;;;26.90;61.90;98634.50;4488381;31;33599;-77
2023/07/25 11:28:41;;;;;;;7.28;3.58;;;;;;;26.77;63.27;98634.16;4457370;31;32002;-78
2023/07/25 11:31:08;;;;;;;8.90;3.70;;;;;;;26.98;63.67;98634.19;4488721;31;33457;-78
2023/07/25 11:33:38;;;;;;;7.80;4.20;;;;;;;26.79;63.65;98632.31;4485255;31;33731;-78
2023/07/25 11:36:06;;;;;;;6.97;3.90;;;;;;;26.87;64.33;98630.19;4483993;31;33725;-76